createdAt,value
2019-01-19T00:00:02.636Z,1
2019-01-19T00:05:10.207Z,1
2019-01-19T00:10:03.194Z,1
2019-01-19T00:15:02.600Z,1
2019-01-19T00:20:02.171Z,1
2019-01-19T00:25:02.581Z,0
2019-01-19T00:30:02.918Z,0
2019-01-19T00:35:03.307Z,1
2019-01-19T00:40:02.811Z,0
2019-01-19T00:45:03.225Z,1
2019-01-19T00:50:01.837Z,0
2019-01-19T00:55:03.294Z,0
2019-01-19T01:00:02.747Z,0
2019-01-19T01:05:02.655Z,1
2019-01-19T01:10:03.084Z,1
2019-01-19T01:15:02.506Z,1
2019-01-19T01:20:02.981Z,0
2019-01-19T01:25:01.565Z,0
2019-01-19T01:30:02.917Z,1
2019-01-19T01:35:03.360Z,0
2019-01-19T01:40:02.772Z,0
2019-01-19T01:45:03.215Z,1
2019-01-19T01:50:02.639Z,0
2019-01-19T01:55:02.984Z,1
2019-01-19T02:00:02.399Z,0
2019-01-19T02:05:02.739Z,1
2019-01-19T02:10:03.192Z,0
2019-01-19T02:15:02.594Z,0
2019-01-19T02:20:02.950Z,0
2019-01-19T02:25:02.586Z,1
2019-01-19T02:30:03.014Z,1
2019-01-19T02:35:02.442Z,0
2019-01-19T02:40:02.869Z,0
2019-01-19T02:45:03.225Z,1
2019-01-19T02:50:01.838Z,1
2019-01-19T02:55:03.244Z,0
2019-01-19T03:00:02.706Z,0
2019-01-19T03:05:03.180Z,0
2019-01-19T03:10:02.656Z,0
2019-01-19T03:15:03.004Z,1
2019-01-19T03:20:02.419Z,1
2019-01-19T03:25:02.865Z,0
2019-01-19T03:30:02.407Z,0
2019-01-19T03:35:02.835Z,0
2019-01-19T03:40:03.275Z,0
2019-01-19T03:45:02.687Z,1
2019-01-19T03:50:03.033Z,1
2019-01-19T03:55:02.461Z,1
2019-01-19T04:00:02.899Z,0
2019-01-19T04:05:03.345Z,0
2019-01-19T04:10:01.961Z,0
2019-01-19T04:15:03.311Z,1
2019-01-19T04:20:02.722Z,0
2019-01-19T04:25:03.096Z,0
2019-01-19T04:30:02.473Z,1
2019-01-19T04:35:02.827Z,0
2019-01-19T04:40:02.348Z,0
2019-01-19T04:45:02.815Z,0
2019-01-19T04:50:03.238Z,0
2019-01-19T04:55:02.646Z,0
2019-01-19T05:00:02.994Z,0
2019-01-19T05:05:02.411Z,0
2019-01-19T05:10:02.859Z,0
2019-01-19T05:15:03.198Z,0
2019-01-19T05:20:02.613Z,0
2019-01-19T05:25:02.962Z,0
2019-01-19T05:30:03.401Z,0
2019-01-19T05:35:02.810Z,0
2019-01-19T05:40:02.466Z,1
2019-01-19T05:45:02.104Z,1
2019-01-19T05:50:02.548Z,0
2019-01-19T05:55:02.961Z,0
2019-01-19T06:00:02.369Z,0
2019-01-19T06:05:02.717Z,0
2019-01-19T06:10:03.154Z,0
2019-01-19T06:15:02.570Z,0
2019-01-19T06:20:03.014Z,0
2019-01-19T06:25:02.438Z,0
2019-01-19T06:30:02.887Z,0
2019-01-19T06:35:03.327Z,0
2019-01-19T06:40:02.743Z,0
2019-01-19T06:45:03.128Z,0
2019-01-19T06:50:02.499Z,1
2019-01-19T06:55:02.937Z,2
2019-01-19T07:00:03.279Z,3
2019-01-19T07:05:02.701Z,6
2019-01-19T07:10:03.181Z,19
2019-01-19T07:15:02.666Z,26
2019-01-19T07:20:03.038Z,37
2019-01-19T07:25:02.473Z,51
2019-01-19T07:30:03.184Z,63
2019-01-19T07:35:02.591Z,101
2019-01-19T07:40:03.052Z,254
2019-01-19T07:45:02.465Z,351
2019-01-19T07:50:02.801Z,448
2019-01-19T07:55:03.139Z,578
2019-01-19T08:00:02.496Z,709
2019-01-19T08:05:02.907Z,828
2019-01-19T08:10:03.359Z,961
2019-01-19T08:15:02.688Z,1000
2019-01-19T08:20:03.105Z,1000
2019-01-19T08:25:02.490Z,1000
2019-01-19T08:30:02.077Z,1000
2019-01-19T08:35:02.488Z,1000
2019-01-19T08:40:02.945Z,2000
2019-01-19T08:45:03.426Z,2000
2019-01-19T08:50:02.790Z,2000
2019-01-19T08:55:03.179Z,2000
2019-01-19T09:00:02.688Z,2000
2019-01-19T09:05:03.107Z,2000
2019-01-19T09:10:02.624Z,4000
2019-01-19T09:15:02.969Z,4000
2019-01-19T09:20:02.379Z,5000
2019-01-19T09:25:02.733Z,5000
2019-01-19T09:30:03.378Z,5000
2019-01-19T09:35:02.783Z,5000
2019-01-19T09:40:03.236Z,7000
2019-01-19T09:45:02.657Z,13000
2019-01-19T09:50:02.997Z,12000
2019-01-19T09:55:02.414Z,11000
2019-01-19T10:00:02.793Z,13000
2019-01-19T10:05:03.230Z,14000
2019-01-19T10:10:02.759Z,15000
2019-01-19T10:15:03.211Z,15000
2019-01-19T10:20:02.712Z,18000
2019-01-19T10:25:03.044Z,16000
2019-01-19T10:30:02.464Z,13000
2019-01-19T10:35:02.997Z,11000
2019-01-19T10:40:02.431Z,11000
2019-01-19T10:45:02.858Z,9000
2019-01-19T10:50:03.197Z,8000
2019-01-19T10:55:02.607Z,8000
2019-01-19T11:00:03.051Z,9000
2019-01-19T11:05:02.594Z,10000
2019-01-19T11:10:03.067Z,13000
2019-01-19T11:15:02.435Z,10000
2019-01-19T11:20:02.887Z,10000
2019-01-19T11:25:03.213Z,10000
2019-01-19T11:30:02.686Z,10000
2019-01-19T11:35:03.088Z,9000
2019-01-19T11:40:01.749Z,9000
2019-01-19T11:45:03.152Z,8000
2019-01-19T11:50:02.559Z,8000
2019-01-19T11:55:02.946Z,8000
2019-01-19T12:00:03.357Z,7000
2019-01-19T12:05:02.721Z,6000
2019-01-19T12:10:03.215Z,6000
2019-01-19T12:15:02.639Z,6000
2019-01-19T12:20:03.083Z,6000
2019-01-19T12:25:02.435Z,6000
2019-01-19T12:30:02.834Z,6000
2019-01-19T12:35:03.289Z,6000
2019-01-19T12:40:02.700Z,6000
2019-01-19T12:45:03.149Z,5000
2019-01-19T12:50:02.561Z,5000
2019-01-19T12:55:02.888Z,5000
2019-01-19T13:00:03.281Z,5000
2019-01-19T13:05:02.703Z,5000
2019-01-19T13:10:03.131Z,5000
2019-01-19T13:15:02.521Z,5000
2019-01-19T13:20:02.871Z,5000
2019-01-19T13:25:03.211Z,5000
2019-01-19T13:30:01.819Z,5000
2019-01-19T13:35:03.173Z,5000
2019-01-19T13:40:02.651Z,5000
2019-01-19T13:45:03.052Z,4000
2019-01-19T13:50:02.466Z,4000
2019-01-19T13:55:02.817Z,4000
2019-01-19T14:00:03.248Z,4000
2019-01-19T14:05:02.704Z,4000
2019-01-19T14:10:03.246Z,4000
2019-01-19T14:15:02.627Z,4000
2019-01-19T14:20:03.025Z,4000
2019-01-19T14:25:02.394Z,3000
2019-01-19T14:30:02.725Z,3000
2019-01-19T14:35:03.067Z,3000
2019-01-19T14:40:02.476Z,3000
2019-01-19T14:45:02.933Z,3000
2019-01-19T14:50:03.345Z,2000
2019-01-19T14:55:02.680Z,2000
2019-01-19T15:00:03.030Z,2000
2019-01-19T15:05:02.452Z,1000
2019-01-19T15:10:02.897Z,1000
2019-01-19T15:15:03.233Z,1000
2019-01-19T15:20:02.656Z,1000
2019-01-19T15:25:02.999Z,1000
2019-01-19T15:30:02.415Z,1000
2019-01-19T15:35:02.756Z,989
2019-01-19T15:40:02.424Z,726
2019-01-19T15:45:02.823Z,595
2019-01-19T15:50:03.187Z,332
2019-01-19T15:55:02.594Z,202
2019-01-19T16:00:02.919Z,109
2019-01-19T16:05:03.262Z,63
2019-01-19T16:10:02.681Z,51
2019-01-19T16:15:03.019Z,42
2019-01-19T16:20:02.451Z,28
2019-01-19T16:25:02.926Z,14
2019-01-19T16:30:03.331Z,9
2019-01-19T16:35:02.738Z,4
2019-01-19T16:40:03.202Z,2
2019-01-19T16:45:02.506Z,2
2019-01-19T16:50:02.847Z,1
2019-01-19T16:55:03.192Z,1
2019-01-19T17:00:02.607Z,1
2019-01-19T17:05:03.437Z,1
2019-01-19T17:10:02.980Z,1
2019-01-19T17:15:02.402Z,1
2019-01-19T17:20:02.739Z,1
2019-01-19T17:25:02.293Z,1
2019-01-19T17:30:02.715Z,1
2019-01-19T17:35:03.083Z,1
2019-01-19T17:40:02.475Z,1
2019-01-19T17:45:02.810Z,1
2019-01-19T17:50:03.151Z,1
2019-01-19T17:55:02.500Z,1
2019-01-19T18:00:02.821Z,1
2019-01-19T18:05:03.157Z,1
2019-01-19T18:10:01.761Z,1
2019-01-19T18:15:03.219Z,1
2019-01-19T18:20:02.629Z,1
2019-01-19T18:25:02.981Z,1
2019-01-19T18:30:02.395Z,1
2019-01-19T18:35:02.843Z,1
2019-01-19T18:40:03.279Z,1
2019-01-19T18:45:02.708Z,1
2019-01-19T18:50:03.153Z,1
2019-01-19T18:55:02.554Z,1
2019-01-19T19:00:02.907Z,1
2019-01-19T19:05:03.349Z,1
2019-01-19T19:10:02.774Z,1
2019-01-19T19:15:03.232Z,1
2019-01-19T19:20:02.623Z,1
2019-01-19T19:25:02.992Z,1
2019-01-19T19:30:02.319Z,1
2019-01-19T19:35:01.943Z,1
2019-01-19T19:40:09.514Z,1
2019-01-19T19:45:02.492Z,1
2019-01-19T19:50:02.881Z,1
2019-01-19T19:55:03.280Z,1
2019-01-19T20:00:02.691Z,1
2019-01-19T20:05:03.038Z,1
2019-01-19T20:10:02.458Z,1
2019-01-19T20:15:02.793Z,1
2019-01-19T20:20:03.143Z,1
2019-01-19T20:25:02.551Z,1
2019-01-19T20:30:02.910Z,1
2019-01-19T20:35:03.380Z,1
2019-01-19T20:40:02.856Z,1
2019-01-19T20:45:03.204Z,1
2019-01-19T20:50:02.619Z,1
2019-01-19T20:55:02.960Z,1
2019-01-19T21:00:03.321Z,1
2019-01-19T21:05:02.755Z,1
2019-01-19T21:10:03.301Z,1
2019-01-19T21:15:01.821Z,1
2019-01-19T21:20:03.249Z,1
2019-01-19T21:25:02.650Z,1
2019-01-19T21:30:03.091Z,1
2019-01-19T21:35:02.462Z,1
2019-01-19T21:40:02.954Z,1
2019-01-19T21:45:03.299Z,1
2019-01-19T21:50:02.710Z,1
2019-01-19T21:55:03.056Z,1
2019-01-19T22:00:02.473Z,1
2019-01-19T22:05:02.822Z,1
2019-01-19T22:10:03.228Z,1
2019-01-19T22:15:02.570Z,1
2019-01-19T22:20:02.922Z,1
2019-01-19T22:25:03.257Z,1
2019-01-19T22:30:02.685Z,1
2019-01-19T22:35:03.021Z,1
2019-01-19T22:40:02.437Z,1
2019-01-19T22:45:02.888Z,1
2019-01-19T22:50:03.230Z,1
2019-01-19T22:55:02.637Z,1
2019-01-19T23:00:02.992Z,1
2019-01-19T23:05:02.403Z,1
2019-01-19T23:10:02.849Z,1
2019-01-19T23:15:03.191Z,1
2019-01-19T23:20:02.598Z,1
2019-01-19T23:25:03.034Z,1
2019-01-19T23:30:02.502Z,1
2019-01-19T23:35:02.913Z,1
2019-01-19T23:40:02.336Z,1
2019-01-19T23:45:02.772Z,1
2019-01-19T23:50:03.122Z,1
2019-01-19T23:55:02.959Z,1
